createdAt,value
2023-04-07T00:03:46.624Z,55.21
2023-04-07T00:08:49.744Z,55.51
2023-04-07T00:13:51.777Z,55.37
2023-04-07T00:18:53.750Z,55.26
2023-04-07T00:23:57.073Z,55.28
2023-04-07T00:28:59.010Z,55.74
2023-04-07T00:34:00.921Z,56.12
2023-04-07T00:39:04.048Z,56.26
2023-04-07T00:44:05.899Z,56.57
2023-04-07T00:49:09.327Z,56.99
2023-04-07T00:54:14.261Z,57.26
2023-04-07T00:59:16.072Z,57.69
2023-04-07T01:04:22.867Z,57.77
2023-04-07T01:09:29.674Z,58.63
2023-04-07T01:14:34.155Z,58.78
2023-04-07T01:19:44.673Z,58.79
2023-04-07T01:25:19.848Z,59.11
2023-04-07T01:30:23.073Z,59.13
2023-04-07T01:35:24.869Z,58.99
2023-04-07T01:40:26.899Z,59.33
2023-04-07T01:45:29.990Z,59.35
2023-04-07T01:50:31.981Z,59.38
2023-04-07T01:55:33.713Z,59.61
2023-04-07T02:00:45.067Z,59.05
2023-04-07T02:05:54.493Z,59.31
2023-04-07T02:10:59.530Z,58.99
2023-04-07T02:16:06.581Z,59.17
2023-04-07T02:21:08.823Z,59.17
2023-04-07T02:26:11.820Z,59.37
2023-04-07T02:31:14.941Z,59.31
2023-04-07T02:36:16.738Z,59.36
2023-04-07T02:41:18.522Z,60.12
2023-04-07T02:46:21.649Z,61.06
2023-04-07T02:51:23.381Z,60.82
2023-04-07T02:56:25.309Z,61.53
2023-04-07T03:01:28.379Z,61.72
2023-04-07T03:06:31.516Z,62.74
2023-04-07T03:11:39.765Z,63.81
2023-04-07T03:16:42.955Z,64.00
2023-04-07T03:21:47.535Z,64.28
2023-04-07T03:26:49.482Z,64.75
2023-04-07T03:31:58.972Z,64.67
2023-04-07T03:37:00.885Z,64.88
2023-04-07T03:42:05.983Z,66.56
2023-04-07T03:47:10.411Z,67.18
2023-04-07T03:52:13.315Z,67.01
2023-04-07T03:57:15.589Z,67.00
2023-04-07T04:02:22.751Z,67.10
2023-04-07T04:07:27.704Z,66.85
2023-04-07T04:12:34.983Z,67.93
2023-04-07T04:17:45.385Z,68.34
2023-04-07T04:22:47.838Z,69.09
2023-04-07T04:27:49.793Z,69.06
2023-04-07T04:33:01.853Z,68.98
2023-04-07T04:38:16.526Z,68.58
2023-04-07T04:43:24.343Z,68.60
2023-04-07T04:48:27.854Z,68.69
2023-04-07T04:53:29.635Z,67.70
2023-04-07T04:58:34.947Z,67.32
2023-04-07T05:03:38.365Z,67.31
2023-04-07T05:08:47.800Z,67.73
2023-04-07T05:13:52.330Z,67.69
2023-04-07T05:18:55.740Z,67.53
2023-04-07T05:24:00.366Z,67.13
2023-04-07T05:29:02.523Z,67.29
2023-04-07T05:34:05.716Z,67.48
2023-04-07T05:39:12.858Z,67.93
2023-04-07T05:44:15.254Z,67.45
2023-04-07T05:49:20.507Z,67.27
2023-04-07T05:54:28.114Z,66.39
2023-04-07T05:59:29.977Z,63.51
2023-04-07T06:04:35.345Z,55.44
2023-04-07T06:09:39.502Z,52.14
2023-04-07T06:14:41.288Z,52.04
2023-04-07T06:19:44.321Z,50.32
2023-04-07T06:24:46.244Z,48.45
2023-04-07T06:29:47.941Z,43.21
2023-04-07T06:34:51.061Z,44.66
2023-04-07T06:39:52.845Z,43.42
2023-04-07T06:44:54.599Z,37.15
2023-04-07T06:49:57.732Z,39.66
2023-04-07T06:54:59.652Z,38.39
2023-04-07T07:00:02.016Z,39.54
2023-04-07T07:05:06.017Z,41.05
2023-04-07T07:10:08.931Z,38.49
2023-04-07T07:15:11.021Z,34.26
2023-04-07T07:20:14.212Z,33.23
2023-04-07T07:25:16.156Z,35.01
2023-04-07T07:30:17.989Z,35.94
2023-04-07T07:35:21.281Z,34.40
2023-04-07T07:40:22.974Z,33.84
2023-04-07T07:45:24.681Z,32.49
2023-04-07T07:50:27.800Z,30.15
2023-04-07T07:55:29.597Z,27.46
2023-04-07T08:00:31.685Z,27.08
2023-04-07T08:05:34.693Z,24.81
2023-04-07T08:10:36.422Z,25.23
2023-04-07T08:15:39.185Z,27.24
2023-04-07T08:20:42.372Z,26.73
2023-04-07T08:25:44.040Z,26.43
2023-04-07T08:30:45.851Z,27.10
2023-04-07T08:35:49.004Z,26.11
2023-04-07T08:40:52.262Z,25.38
2023-04-07T08:45:54.159Z,24.34
2023-04-07T08:50:57.183Z,23.97
2023-04-07T08:55:58.862Z,23.55
2023-04-07T09:01:00.578Z,22.61
2023-04-07T09:06:03.984Z,21.86
2023-04-07T09:11:06.165Z,21.23
2023-04-07T09:16:07.985Z,20.48
2023-04-07T09:21:12.154Z,21.11
2023-04-07T09:26:22.768Z,21.79
2023-04-07T09:31:26.495Z,22.38
2023-04-07T09:36:31.082Z,21.65
2023-04-07T09:41:32.871Z,21.22
2023-04-07T09:46:34.806Z,20.42
2023-04-07T09:51:38.161Z,19.73
2023-04-07T09:56:39.878Z,19.87
2023-04-07T10:01:41.644Z,19.69
2023-04-07T10:06:45.504Z,19.30
2023-04-07T10:11:48.705Z,18.71
2023-04-07T10:16:51.853Z,19.37
2023-04-07T10:21:54.954Z,18.75
2023-04-07T10:26:59.227Z,18.68
2023-04-07T10:32:01.595Z,18.61
2023-04-07T10:37:14.212Z,17.79
2023-04-07T10:42:47.210Z,16.73
2023-04-07T10:48:16.392Z,16.75
2023-04-07T10:53:19.393Z,16.38
2023-04-07T10:58:24.577Z,16.80
2023-04-07T11:03:26.741Z,17.59
2023-04-07T11:08:33.933Z,16.23
2023-04-07T11:13:40.665Z,19.27
2023-04-07T11:18:42.701Z,23.14
2023-04-07T11:23:46.856Z,25.80
2023-04-07T11:28:49.408Z,27.35
2023-04-07T11:33:54.793Z,28.98
2023-04-07T11:38:57.963Z,28.48
2023-04-07T11:44:06.777Z,27.87
2023-04-07T11:49:09.749Z,29.87
2023-04-07T11:54:12.807Z,28.72
2023-04-07T11:59:22.796Z,30.05
2023-04-07T12:04:24.690Z,29.66
2023-04-07T12:09:32.214Z,29.91
2023-04-07T12:14:34.034Z,30.28
2023-04-07T12:19:36.239Z,30.58
2023-04-07T12:24:39.484Z,30.84
2023-04-07T12:29:41.703Z,29.12
2023-04-07T12:34:43.948Z,30.59
2023-04-07T12:39:46.980Z,30.79
2023-04-07T12:44:48.705Z,28.47
2023-04-07T12:49:50.525Z,29.64
2023-04-07T12:54:53.783Z,30.22
2023-04-07T12:59:55.479Z,29.06
2023-04-07T13:04:57.172Z,29.63
2023-04-07T13:10:00.275Z,28.64
2023-04-07T13:15:02.482Z,29.58
2023-04-07T13:20:04.616Z,29.57
2023-04-07T13:25:08.235Z,30.23
2023-04-07T13:30:10.871Z,31.10
2023-04-07T13:35:12.573Z,31.64
2023-04-07T13:40:15.807Z,31.35
2023-04-07T13:45:17.580Z,30.79
2023-04-07T13:50:23.879Z,31.35
2023-04-07T13:55:27.793Z,31.58
2023-04-07T14:00:29.730Z,30.86
2023-04-07T14:05:31.635Z,31.78
2023-04-07T14:10:36.348Z,32.29
2023-04-07T14:15:38.086Z,32.57
2023-04-07T14:20:39.798Z,31.51
2023-04-07T14:25:42.840Z,32.26
2023-04-07T14:30:44.553Z,32.82
2023-04-07T14:35:46.426Z,32.24
2023-04-07T14:40:49.653Z,32.37
2023-04-07T14:45:52.077Z,32.82
2023-04-07T14:51:06.138Z,32.34
2023-04-07T14:56:12.238Z,30.99
2023-04-07T15:01:14.009Z,32.63
2023-04-07T15:06:16.801Z,34.83
2023-04-07T15:11:19.939Z,34.98
2023-04-07T15:16:21.730Z,34.93
2023-04-07T15:21:23.468Z,34.83
2023-04-07T15:26:26.671Z,34.95
2023-04-07T15:31:29.890Z,36.92
2023-04-07T15:36:31.733Z,37.02
2023-04-07T15:41:34.740Z,37.79
2023-04-07T15:46:36.442Z,38.70
2023-04-07T15:51:38.198Z,38.29
2023-04-07T15:56:41.170Z,37.63
2023-04-07T16:01:42.935Z,38.46
2023-04-07T16:06:44.665Z,39.55
2023-04-07T16:11:47.702Z,40.44
2023-04-07T16:16:51.702Z,40.50
2023-04-07T16:21:53.454Z,41.25
2023-04-07T16:26:56.496Z,41.95
2023-04-07T16:31:58.191Z,42.17
2023-04-07T16:36:59.910Z,43.30
2023-04-07T16:42:03.358Z,42.78
2023-04-07T16:47:05.063Z,42.87
2023-04-07T16:52:06.746Z,42.93
2023-04-07T16:57:09.763Z,43.97
2023-04-07T17:02:13.018Z,43.08
2023-04-07T17:07:15.503Z,43.32
2023-04-07T17:12:18.516Z,43.79
2023-04-07T17:17:20.293Z,44.71
2023-04-07T17:22:22.070Z,45.99
2023-04-07T17:27:25.152Z,47.34
2023-04-07T17:32:27.154Z,48.78
2023-04-07T17:37:28.938Z,50.31
2023-04-07T17:42:32.838Z,51.45
2023-04-07T17:47:34.984Z,52.21
2023-04-07T17:52:36.825Z,53.77
2023-04-07T17:57:41.468Z,55.00
2023-04-07T18:02:43.316Z,57.98
2023-04-07T18:07:45.278Z,60.38
2023-04-07T18:12:48.487Z,63.20
2023-04-07T18:17:52.972Z,65.60
2023-04-07T18:22:55.584Z,67.69
2023-04-07T18:27:58.938Z,69.40
2023-04-07T18:33:00.657Z,70.70
2023-04-07T18:38:04.510Z,71.88
2023-04-07T18:43:07.584Z,72.51
2023-04-07T18:48:11.007Z,72.99
2023-04-07T18:53:15.601Z,73.86
2023-04-07T18:58:19.809Z,74.18
2023-04-07T19:03:21.646Z,74.61
2023-04-07T19:08:24.560Z,75.21
2023-04-07T19:13:27.717Z,74.83
2023-04-07T19:18:31.716Z,75.12
2023-04-07T19:23:33.500Z,75.22
2023-04-07T19:28:36.521Z,74.89
2023-04-07T19:33:38.259Z,75.31
2023-04-07T19:38:40.068Z,75.42
2023-04-07T19:43:43.426Z,75.64
2023-04-07T19:48:45.105Z,76.23
2023-04-07T19:53:47.012Z,77.71
2023-04-07T19:58:50.480Z,77.11
2023-04-07T20:03:52.453Z,77.37
2023-04-07T20:08:55.470Z,77.96
2023-04-07T20:13:58.505Z,77.68
2023-04-07T20:19:00.176Z,77.50
2023-04-07T20:24:01.844Z,77.67
2023-04-07T20:29:04.856Z,78.55
2023-04-07T20:34:06.696Z,78.80
2023-04-07T20:39:08.376Z,79.35
2023-04-07T20:44:11.595Z,79.21
2023-04-07T20:49:13.281Z,79.78
2023-04-07T20:54:15.210Z,79.72
2023-04-07T20:59:18.241Z,80.16
2023-04-07T21:04:20.145Z,80.98
2023-04-07T21:09:22.052Z,80.90
2023-04-07T21:14:25.337Z,81.28
2023-04-07T21:19:27.017Z,82.43
2023-04-07T21:24:29.680Z,82.20
2023-04-07T21:29:32.711Z,81.86
2023-04-07T21:34:34.411Z,82.01
2023-04-07T21:39:36.585Z,82.31
2023-04-07T21:44:39.722Z,82.58
2023-04-07T21:49:41.385Z,83.74
2023-04-07T21:54:43.357Z,84.79
2023-04-07T21:59:46.608Z,84.96
2023-04-07T22:04:48.462Z,84.83
2023-04-07T22:09:50.302Z,84.56
2023-04-07T22:14:53.408Z,84.23
2023-04-07T22:19:55.713Z,83.31
2023-04-07T22:24:57.381Z,83.35
2023-04-07T22:30:00.450Z,84.51
2023-04-07T22:35:02.186Z,84.93
2023-04-07T22:40:04.467Z,85.70
2023-04-07T22:45:09.080Z,86.65
2023-04-07T22:50:11.686Z,87.36
2023-04-07T22:55:13.443Z,87.93
2023-04-07T23:00:16.585Z,88.78
2023-04-07T23:05:18.483Z,88.88
2023-04-07T23:10:20.427Z,88.71
2023-04-07T23:15:23.448Z,89.06
2023-04-07T23:20:25.149Z,89.42
2023-04-07T23:25:27.536Z,89.28
2023-04-07T23:30:30.612Z,89.99
2023-04-07T23:35:32.366Z,89.81
2023-04-07T23:40:34.219Z,90.15
2023-04-07T23:45:37.304Z,90.18
2023-04-07T23:50:39.005Z,90.72
2023-04-07T23:55:40.749Z,91.41
